Terminal Aerodrome Forecast
Issued by NWS

Home | Current Version | Previous Version | Text Only | Print | Product List | Glossary On
Versions: 1 2 3 4 5 6 7 8 9 10 11 12
561
FTUS42 TJSJ 291749
TAFJMZ
TAF
TJMZ 291749Z 2918/3018 08006KT P6SM VCSH SCT040 SCT060
     FM292300 07005KT P6SM SCT060
     FM301300 14011KT P6SM VCSH FEW030 FEW060
      AMD NOT SKED=

USA.gov is the U.S. government's official web portal to all federal, state and local government web resources and services.